SBOSBO AGB / EDMA
Speedbird OnlineSpeedbird Online AGB / EDMA

Augsburg Airport
02:42 10.7°C

Location Augsburg, Germany
Latitude: 48.425278
Longitude: 10.931667
Local Time 02:42 on 26 May 2024
UTC +2 hours (Europe/Berlin)
Currency £1 equals EUR 1.17
METAR EDMA 260020Z AUTO 08002KT 9999 // OVC110/// 11/10 Q1019
TAF
Weather As Of 26 May 2024 02:42
Description Overcast clouds
Wind 4 km/h from East (80°)
Cloud Cover 100%
Precipitation Rain: none, Snow: none
Sunrise 05:23
Sunset 21:03
NOTAM 3 active NOTAM
Rotations During the last 90 days there were
19 flights from
18 flights from MRS
1 flights from BWE
1 flights from BLL
18 flights to MRS
Web Airport Website | Wikipedia
Codes IATA: AGB
ICAO: EDMA
Altitude 462 Meter / 1516 Feet
Distance 845 KM / 525 Miles
from London.
Runways
RunwayLength (m)Surface
071594Asphalt
07L1013Grass
251594Asphalt
25R1013Grass
Radio
TypeDescriptionFrequency
ATISATIS124.575
INFOMUNCHEN INFO120.65
RDRMUNCHEN RADAR128.25
TWRTWR124.975
Live ATC



Support Speedbird Online

© 2017-2024 Speedbird Online